Time;durP1;ratioP1;P1;durP2;ratioP2;P2;SDS_P1;SDS_P2;PMS_P1;PMS_P2;Temp;Humidity;BMP_temperature;BMP_pressure;BME280_temperature;BME280_humidity;BME280_pressure;Samples;Min_cycle;Max_cycle;Signal;HPM_P1;HPM_P2
2021/10/09 00:02:18;;;;;;;18.60;16.00;;;12.70;99.90;;;;;;5015918;28;20302;-50
2021/10/09 00:04:45;;;;;;;18.93;15.83;;;12.70;99.90;;;;;;5022064;28;20247;-50
2021/10/09 00:07:11;;;;;;;19.93;16.20;;;12.60;99.90;;;;;;5017121;28;20208;-50
2021/10/09 00:09:38;;;;;;;21.30;16.67;;;12.60;99.90;;;;;;5021597;28;20287;-50
2021/10/09 00:12:05;;;;;;;23.03;16.20;;;12.60;99.90;;;;;;5016726;28;20288;-49
2021/10/09 00:14:32;;;;;;;22.93;16.03;;;12.60;99.90;;;;;;5015511;28;20287;-50
2021/10/09 00:16:59;;;;;;;21.37;17.07;;;12.50;99.90;;;;;;5012232;28;20231;-50
2021/10/09 00:19:26;;;;;;;22.07;17.50;;;12.50;99.90;;;;;;5017130;28;20291;-50
2021/10/09 00:21:52;;;;;;;21.07;16.43;;;12.40;99.90;;;;;;5012350;28;20198;-50
2021/10/09 00:24:20;;;;;;;20.97;16.33;;;12.40;99.90;;;;;;5010216;28;20304;-50
2021/10/09 00:26:47;;;;;;;23.03;16.97;;;12.30;99.90;;;;;;5015617;28;20293;-50
2021/10/09 00:29:14;;;;;;;22.33;16.30;;;12.40;99.90;;;;;;5020878;28;20229;-51
2021/10/09 00:31:41;;;;;;;22.90;17.40;;;12.40;99.90;;;;;;5016217;28;20235;-50
2021/10/09 00:34:08;;;;;;;21.30;16.73;;;12.30;99.90;;;;;;5010964;28;20264;-50
2021/10/09 00:36:35;;;;;;;21.30;16.83;;;12.30;99.90;;;;;;5013345;28;20262;-50
2021/10/09 00:39:03;;;;;;;24.37;17.37;;;12.30;99.90;;;;;;5015633;28;20662;-50
2021/10/09 00:41:30;;;;;;;22.97;17.60;;;12.30;99.90;;;;;;5015610;28;20272;-50
2021/10/09 00:44:11;;;;;;;22.87;17.70;;;12.20;99.90;;;;;;5022605;28;20234;-50
2021/10/09 00:46:39;;;;;;;20.83;16.70;;;12.30;99.90;;;;;;5021221;28;20230;-50
2021/10/09 00:49:07;;;;;;;25.60;18.00;;;12.20;99.90;;;;;;5010714;28;20292;-50
2021/10/09 00:51:34;;;;;;;20.97;17.47;;;12.20;99.90;;;;;;5025125;28;20311;-50
2021/10/09 00:54:01;;;;;;;25.40;18.07;;;12.20;99.90;;;;;;5022579;28;20223;-49
2021/10/09 00:56:30;;;;;;;23.13;17.97;;;12.00;99.90;;;;;;5013429;28;20315;-50
2021/10/09 00:58:58;;;;;;;23.87;18.47;;;12.10;99.90;;;;;;5012774;28;20228;-50
2021/10/09 01:01:25;;;;;;;23.50;18.63;;;12.10;99.90;;;;;;5016820;28;20290;-50
2021/10/09 01:03:53;;;;;;;24.90;17.97;;;12.10;99.90;;;;;;5012321;28;20265;-49
2021/10/09 01:06:20;;;;;;;26.30;19.37;;;12.10;99.90;;;;;;5010829;28;20294;-49
2021/10/09 01:08:47;;;;;;;23.03;18.23;;;12.10;99.90;;;;;;5014365;28;20883;-49
2021/10/09 01:11:14;;;;;;;21.03;18.13;;;12.00;99.90;;;;;;5013426;28;20310;-49
2021/10/09 01:13:41;;;;;;;25.37;19.27;;;11.90;99.90;;;;;;5015383;28;20625;-49
2021/10/09 01:16:18;;;;;;;23.77;18.73;;;11.90;99.90;;;;;;5016776;28;20287;-49
2021/10/09 01:18:48;;;;;;;24.13;17.67;;;12.00;99.90;;;;;;5017237;28;20202;-50
2021/10/09 01:21:15;;;;;;;24.87;18.20;;;12.00;99.90;;;;;;5006520;28;20234;-50
2021/10/09 01:23:42;;;;;;;22.37;18.17;;;12.00;99.90;;;;;;5014440;28;20229;-50
2021/10/09 01:26:10;;;;;;;23.83;18.30;;;11.90;99.90;;;;;;5008591;28;20222;-49
2021/10/09 01:28:41;;;;;;;22.70;18.30;;;12.00;99.90;;;;;;5015715;28;20612;-49
2021/10/09 01:31:08;;;;;;;25.07;18.60;;;12.00;99.90;;;;;;5007366;28;20313;-50
2021/10/09 01:33:35;;;;;;;25.63;18.20;;;12.00;99.90;;;;;;5015194;28;20213;-50
2021/10/09 01:36:02;;;;;;;22.83;18.20;;;11.90;99.90;;;;;;5009228;28;20196;-50
2021/10/09 01:38:30;;;;;;;29.67;19.77;;;11.90;99.90;;;;;;5008662;28;20220;-50
2021/10/09 01:40:57;;;;;;;24.87;17.93;;;11.90;99.90;;;;;;5005388;28;20757;-50
2021/10/09 01:43:25;;;;;;;24.73;19.33;;;11.80;99.90;;;;;;5020230;28;20245;-49
2021/10/09 01:45:52;;;;;;;24.97;18.97;;;11.80;99.90;;;;;;5009379;28;20326;-50
2021/10/09 01:48:32;;;;;;;26.37;18.60;;;11.80;99.90;;;;;;5008997;28;20468;-50
2021/10/09 01:50:59;;;;;;;24.90;18.03;;;11.80;99.90;;;;;;5013545;28;20314;-50
2021/10/09 01:53:26;;;;;;;24.30;18.37;;;11.80;99.90;;;;;;5009917;28;20294;-49
2021/10/09 01:55:54;;;;;;;22.67;18.40;;;11.80;99.90;;;;;;5011372;28;20198;-50
2021/10/09 01:58:21;;;;;;;25.57;18.47;;;11.70;99.90;;;;;;5015260;28;20229;-49
2021/10/09 02:00:48;;;;;;;27.23;19.43;;;11.80;99.90;;;;;;5013596;28;20650;-50
2021/10/09 02:03:19;;;;;;;26.27;19.03;;;11.80;99.90;;;;;;5010723;28;20767;-50
2021/10/09 02:05:46;;;;;;;25.63;19.03;;;11.70;99.90;;;;;;5012270;28;20217;-50
2021/10/09 02:08:14;;;;;;;29.37;19.23;;;11.80;99.90;;;;;;5010211;28;20238;-50
2021/10/09 02:11:02;;;;;;;26.20;19.47;;;11.70;99.90;;;;;;5013974;28;20225;-50
2021/10/09 02:13:38;;;;;;;27.93;19.10;;;11.70;99.90;;;;;;5013763;28;20655;-50
2021/10/09 02:18:47;;;;;;;25.13;19.47;;;11.80;99.90;;;;;;5012272;28;20225;-50
2021/10/09 02:24:22;;;;;;;28.40;20.30;;;11.80;99.90;;;;;;5004842;28;20227;-49
2021/10/09 02:26:48;;;;;;;28.97;19.77;;;11.60;99.90;;;;;;5011821;28;20229;-51
2021/10/09 02:29:15;;;;;;;26.57;19.57;;;11.70;99.90;;;;;;5012675;28;20203;-50
2021/10/09 02:31:42;;;;;;;25.73;19.13;;;11.80;99.90;;;;;;5014342;28;20330;-49
2021/10/09 02:34:09;;;;;;;27.13;20.13;;;11.70;99.90;;;;;;5006106;28;20220;-50
2021/10/09 02:36:36;;;;;;;26.73;20.00;;;11.60;99.90;;;;;;5010413;28;20286;-49
2021/10/09 02:39:04;;;;;;;27.73;19.70;;;11.70;99.90;;;;;;5005048;28;20241;-50
2021/10/09 02:41:31;;;;;;;27.93;20.60;;;11.70;99.90;;;;;;5007953;28;20628;-50
2021/10/09 02:43:58;;;;;;;29.00;20.47;;;11.70;99.90;;;;;;5004782;28;21133;-50
2021/10/09 02:46:24;;;;;;;25.33;19.83;;;11.60;99.90;;;;;;5014593;28;20339;-49
2021/10/09 02:48:51;;;;;;;29.30;20.40;;;11.60;99.90;;;;;;5008398;28;20518;-49
2021/10/09 02:51:18;;;;;;;27.47;20.30;;;11.50;99.90;;;;;;5012506;28;20317;-50
2021/10/09 02:53:45;;;;;;;33.20;20.17;;;11.60;99.90;;;;;;5015377;28;20240;-50
2021/10/09 02:56:12;;;;;;;27.77;19.40;;;11.60;99.90;;;;;;5012883;28;20632;-50
2021/10/09 02:58:38;;;;;;;29.37;20.97;;;11.50;99.90;;;;;;5011680;28;20738;-49
2021/10/09 03:01:05;;;;;;;27.30;19.03;;;11.50;99.90;;;;;;5012050;28;20671;-49
2021/10/09 03:03:32;;;;;;;27.57;19.93;;;11.60;99.90;;;;;;5010702;28;20232;-50
2021/10/09 03:05:59;;;;;;;26.80;19.53;;;11.60;99.90;;;;;;5014226;28;20212;-50
2021/10/09 03:08:25;;;;;;;29.30;19.60;;;11.60;99.90;;;;;;5009523;28;20219;-50
2021/10/09 03:10:52;;;;;;;29.60;19.57;;;11.60;99.90;;;;;;5011077;28;20603;-50
2021/10/09 03:13:19;;;;;;;30.00;21.27;;;11.50;99.90;;;;;;5010616;28;20289;-50
2021/10/09 03:15:46;;;;;;;30.30;21.07;;;11.50;99.90;;;;;;5009261;28;20272;-49
2021/10/09 03:18:13;;;;;;;26.47;19.47;;;11.50;99.90;;;;;;5013782;28;20715;-49
2021/10/09 03:20:40;;;;;;;29.53;20.40;;;11.50;99.90;;;;;;5014416;28;20674;-50
2021/10/09 03:23:06;;;;;;;33.83;20.73;;;11.40;99.90;;;;;;5012240;28;20231;-49
2021/10/09 03:25:36;;;;;;;26.77;19.73;;;11.40;99.90;;;;;;5007940;28;20332;-49
2021/10/09 03:28:03;;;;;;;29.10;20.17;;;11.40;99.90;;;;;;5012598;28;20220;-49
2021/10/09 03:30:30;;;;;;;28.63;19.70;;;11.40;99.90;;;;;;5015046;28;20876;-49
2021/10/09 03:32:58;;;;;;;30.97;21.93;;;11.40;99.90;;;;;;5014336;28;20257;-49
2021/10/09 03:35:24;;;;;;;31.17;21.60;;;11.30;99.90;;;;;;5014289;28;20231;-49
2021/10/09 03:37:51;;;;;;;28.63;19.93;;;11.40;99.90;;;;;;5009419;28;20283;-49
2021/10/09 03:40:21;;;;;;;32.20;21.00;;;11.40;99.90;;;;;;5008457;28;20609;-49
2021/10/09 03:42:55;;;;;;;27.87;20.20;;;11.40;99.90;;;;;;5011642;28;20806;-49
2021/10/09 03:45:35;;;;;;;30.90;20.37;;;11.40;99.90;;;;;;5011260;28;20268;-49
2021/10/09 03:48:16;;;;;;;31.57;21.00;;;11.30;99.90;;;;;;5009260;28;20301;-48
2021/10/09 03:53:29;;;;;;;30.63;20.87;;;11.30;99.90;;;;;;5017452;28;20222;-50
2021/10/09 03:55:55;;;;;;;29.77;20.20;;;11.30;99.90;;;;;;5012754;28;20200;-50
2021/10/09 03:58:22;;;;;;;28.60;20.27;;;11.20;99.90;;;;;;5011880;28;20963;-48
2021/10/09 04:00:49;;;;;;;28.73;20.80;;;11.20;99.90;;;;;;5010698;28;20228;-48
2021/10/09 04:03:16;;;;;;;29.00;20.80;;;11.10;99.90;;;;;;5014621;28;20725;-49
2021/10/09 04:05:43;;;;;;;28.80;20.27;;;11.20;99.90;;;;;;5016208;28;20313;-48
2021/10/09 04:08:09;;;;;;;32.23;21.63;;;11.20;99.90;;;;;;5015200;28;20593;-51
2021/10/09 04:10:38;;;;;;;31.77;21.90;;;11.10;99.90;;;;;;5014522;28;20291;-51
2021/10/09 04:13:05;;;;;;;29.53;20.33;;;11.10;99.90;;;;;;5015184;28;20307;-50
2021/10/09 04:15:32;;;;;;;31.20;20.73;;;11.00;99.90;;;;;;5016165;28;20277;-48
2021/10/09 04:17:59;;;;;;;29.30;20.53;;;11.00;99.90;;;;;;5017254;28;20197;-51
2021/10/09 04:20:26;;;;;;;32.20;22.33;;;11.00;99.90;;;;;;5018195;28;20196;-50
2021/10/09 04:22:53;;;;;;;29.70;20.93;;;11.00;99.90;;;;;;5009954;28;20294;-51
2021/10/09 04:25:20;;;;;;;31.17;20.23;;;11.00;99.90;;;;;;5007753;28;20213;-51
2021/10/09 04:27:47;;;;;;;30.57;21.23;;;11.10;99.90;;;;;;5017997;28;20308;-50
2021/10/09 04:30:14;;;;;;;29.23;21.23;;;11.00;99.90;;;;;;5014078;28;20202;-48
2021/10/09 04:32:41;;;;;;;30.33;20.80;;;11.00;99.90;;;;;;5015213;28;20293;-48
2021/10/09 04:35:08;;;;;;;28.90;20.10;;;11.00;99.90;;;;;;5009558;28;20311;-51
2021/10/09 04:37:34;;;;;;;30.33;21.37;;;11.00;99.90;;;;;;5013086;28;20263;-48
2021/10/09 04:40:05;;;;;;;30.47;20.57;;;11.00;99.90;;;;;;5013675;28;20740;-51
2021/10/09 04:42:32;;;;;;;30.53;21.60;;;11.00;99.90;;;;;;5006328;28;20293;-51
2021/10/09 04:44:58;;;;;;;31.07;20.23;;;11.00;99.90;;;;;;5013273;28;21018;-48
2021/10/09 04:47:25;;;;;;;29.73;19.87;;;11.00;99.90;;;;;;5016520;28;20243;-49
2021/10/09 04:49:52;;;;;;;32.43;21.23;;;10.90;99.90;;;;;;5013974;28;20241;-51
2021/10/09 04:52:19;;;;;;;29.90;21.47;;;10.90;99.90;;;;;;5015373;28;20300;-49
2021/10/09 04:54:46;;;;;;;35.67;21.97;;;10.80;99.90;;;;;;5013392;28;20704;-49
2021/10/09 04:57:12;;;;;;;29.87;21.23;;;10.80;99.90;;;;;;5016925;28;20230;-49
2021/10/09 04:59:39;;;;;;;30.87;20.00;;;10.80;99.90;;;;;;5010189;28;20231;-49
2021/10/09 05:02:06;;;;;;;32.53;21.40;;;10.80;99.90;;;;;;5011366;28;20337;-49
2021/10/09 05:04:33;;;;;;;31.20;21.23;;;10.80;99.90;;;;;;5008612;28;20198;-49
2021/10/09 05:07:00;;;;;;;30.53;20.70;;;10.80;99.90;;;;;;5016793;28;20310;-49
2021/10/09 05:09:27;;;;;;;29.77;20.07;;;10.80;99.90;;;;;;5015311;28;20229;-49
2021/10/09 05:11:53;;;;;;;34.93;21.10;;;10.80;99.90;;;;;;5011873;28;20314;-49
2021/10/09 05:14:20;;;;;;;26.50;19.17;;;10.80;99.90;;;;;;5010445;28;20300;-49
2021/10/09 05:16:47;;;;;;;30.23;21.13;;;10.80;99.90;;;;;;5012782;28;20231;-49
2021/10/09 05:19:14;;;;;;;29.87;20.57;;;10.80;99.90;;;;;;5015924;28;20291;-49
2021/10/09 05:21:41;;;;;;;29.80;20.90;;;10.80;99.90;;;;;;5018443;28;20290;-48
2021/10/09 05:24:08;;;;;;;31.40;21.57;;;10.70;99.90;;;;;;5008086;28;20622;-50
2021/10/09 05:26:37;;;;;;;28.67;20.73;;;10.70;99.90;;;;;;5015337;28;20237;-49
2021/10/09 05:29:04;;;;;;;32.87;22.50;;;10.70;99.90;;;;;;5016994;28;20238;-49
2021/10/09 05:31:33;;;;;;;31.17;21.80;;;10.70;99.90;;;;;;5013970;28;20665;-49
2021/10/09 05:34:00;;;;;;;32.07;21.60;;;10.60;99.90;;;;;;5014654;28;20339;-50
2021/10/09 05:36:27;;;;;;;30.13;20.63;;;10.70;99.90;;;;;;5008521;28;20736;-49
2021/10/09 05:38:54;;;;;;;29.87;21.33;;;10.70;99.90;;;;;;5009828;28;20592;-49
2021/10/09 05:41:21;;;;;;;29.53;20.00;;;10.70;99.90;;;;;;5013322;28;20553;-49
2021/10/09 05:43:48;;;;;;;32.87;21.10;;;10.70;99.90;;;;;;5010329;28;20579;-49
2021/10/09 05:46:16;;;;;;;32.97;21.90;;;10.70;99.90;;;;;;5010738;28;20822;-49
2021/10/09 05:48:43;;;;;;;31.27;21.40;;;10.70;99.90;;;;;;5016657;28;20618;-50
2021/10/09 06:47:23;;;;;;;32.50;21.00;;;10.80;99.90;;;;;;5014320;28;20235;-49
2021/10/09 07:00:56;;;;;;;31.13;21.90;;;10.80;99.90;;;;;;5016424;28;20706;-50
2021/10/09 07:03:23;;;;;;;31.83;21.50;;;11.00;99.90;;;;;;5010019;28;20295;-50
2021/10/09 07:05:51;;;;;;;33.67;23.00;;;11.00;99.90;;;;;;5007662;28;20255;-50
2021/10/09 07:08:18;;;;;;;32.50;23.03;;;11.10;99.90;;;;;;5015539;28;20253;-49
2021/10/09 07:10:49;;;;;;;32.63;23.13;;;11.00;99.90;;;;;;5009009;28;20308;-50
2021/10/09 07:13:16;;;;;;;34.13;22.50;;;11.00;99.90;;;;;;5016061;28;20310;-50
2021/10/09 07:15:43;;;;;;;33.47;22.93;;;11.10;99.90;;;;;;5016984;28;20256;-50
2021/10/09 07:18:12;;;;;;;30.63;23.87;;;11.10;99.90;;;;;;5016348;28;20211;-50
2021/10/09 07:20:41;;;;;;;36.00;22.17;;;11.20;99.90;;;;;;5017966;28;20727;-49
2021/10/09 07:23:11;;;;;;;33.60;22.23;;;11.20;99.90;;;;;;5014948;28;20606;-50
2021/10/09 07:25:39;;;;;;;35.37;23.57;;;11.30;99.90;;;;;;5016110;28;20291;-50
2021/10/09 07:28:06;;;;;;;41.33;24.10;;;11.30;99.90;;;;;;5012274;28;20254;-50
2021/10/09 07:30:33;;;;;;;35.30;23.53;;;11.50;99.90;;;;;;5014742;28;20576;-50
2021/10/09 07:33:00;;;;;;;33.40;23.47;;;11.50;99.90;;;;;;5009098;28;20603;-50
2021/10/09 07:35:26;;;;;;;31.30;22.27;;;11.50;99.90;;;;;;5010936;28;20295;-50
2021/10/09 07:37:53;;;;;;;36.47;24.30;;;11.60;99.90;;;;;;5006635;28;20250;-50
2021/10/09 07:40:20;;;;;;;32.73;22.60;;;11.70;99.90;;;;;;5005806;28;21532;-50
2021/10/09 07:42:47;;;;;;;35.37;23.57;;;11.70;99.90;;;;;;5006141;28;20255;-51
2021/10/09 07:45:14;;;;;;;34.70;22.73;;;11.70;99.90;;;;;;5015266;28;20334;-50
2021/10/09 07:47:41;;;;;;;34.37;23.57;;;11.90;99.90;;;;;;5011793;28;20229;-50
2021/10/09 07:50:08;;;;;;;32.90;23.30;;;12.20;99.90;;;;;;5005795;28;20277;-50
2021/10/09 07:52:35;;;;;;;32.63;22.97;;;12.30;99.90;;;;;;5003500;28;20226;-50
2021/10/09 07:55:03;;;;;;;31.60;21.70;;;12.30;99.90;;;;;;5005369;28;20295;-50
2021/10/09 07:57:30;;;;;;;33.47;23.27;;;12.40;99.90;;;;;;5013767;28;20204;-50
2021/10/09 07:59:57;;;;;;;39.03;24.13;;;12.60;99.90;;;;;;5009290;28;20215;-50
2021/10/09 08:02:24;;;;;;;34.73;22.60;;;12.80;99.90;;;;;;5015776;28;20238;-49
2021/10/09 08:04:51;;;;;;;31.47;22.83;;;13.10;99.90;;;;;;5016517;28;20225;-53
2021/10/09 08:07:18;;;;;;;34.43;22.10;;;13.30;54.30;;;;;;5017167;28;20227;-50
2021/10/09 08:09:45;;;;;;;33.70;22.53;;;13.30;41.80;;;;;;5014411;28;20203;-50
2021/10/09 08:12:12;;;;;;;33.47;22.30;;;13.50;1.00;;;;;;5015118;28;20257;-50
2021/10/09 08:14:39;;;;;;;35.37;22.77;;;13.60;1.00;;;;;;5012252;28;20284;-50
2021/10/09 08:17:06;;;;;;;36.00;23.27;;;13.60;1.00;;;;;;5013814;28;20247;-50
2021/10/09 08:19:32;;;;;;;36.50;22.90;;;13.60;1.00;;;;;;5016674;28;20236;-50
2021/10/09 08:22:03;;;;;;;34.40;21.67;;;13.80;1.00;;;;;;5011540;28;20491;-50
2021/10/09 08:24:43;;;;;;;34.97;22.27;;;14.10;1.00;;;;;;5015949;28;20293;-51
2021/10/09 08:40:55;;;;;;;29.83;21.03;;;15.30;99.90;;;;;;5010019;28;20643;-50
2021/10/09 08:43:22;;;;;;;30.10;20.87;;;15.40;1.00;;;;;;5009190;28;20316;-51
2021/10/09 08:45:49;;;;;;;25.43;20.33;;;15.60;1.00;;;;;;5009598;28;20268;-50
2021/10/09 08:48:17;;;;;;;27.83;21.63;;;15.80;17.80;;;;;;5013823;28;20197;-50
2021/10/09 08:50:45;;;;;;;29.03;20.53;;;15.90;99.90;;;;;;5023476;28;20352;-50
2021/10/09 08:53:12;;;;;;;26.60;20.57;;;16.10;99.90;;;;;;5015227;28;20293;-50
2021/10/09 08:55:45;;;;;;;31.07;21.30;;;16.00;99.90;;;;;;5015970;28;20848;-51
2021/10/09 08:58:36;;;;;;;32.60;20.93;;;16.20;99.90;;;;;;5021369;28;20269;-51
2021/10/09 09:01:13;;;;;;;29.40;20.90;;;16.30;1.00;;;;;;5012837;28;20236;-50
2021/10/09 09:32:49;;;;;;;27.47;20.37;;;16.10;1.00;;;;;;5011849;28;20309;-50
2021/10/09 09:35:22;;;;;;;27.23;21.00;;;16.00;1.00;;;;;;5009949;28;20707;-50
2021/10/09 09:40:44;;;;;;;32.53;22.27;;;15.90;1.00;;;;;;5011266;28;20233;-50
2021/10/09 09:43:12;;;;;;;35.63;22.03;;;16.10;99.90;;;;;;5020076;28;20253;-50
2021/10/09 09:45:40;;;;;;;25.97;22.13;;;15.90;1.00;;;;;;5012402;28;20227;-49
2021/10/09 09:48:08;;;;;;;33.53;22.67;;;15.90;1.00;;;;;;5016044;28;20652;-50
2021/10/09 09:50:37;;;;;;;29.33;22.10;;;15.80;1.00;;;;;;5012609;28;20227;-51
2021/10/09 09:53:05;;;;;;;32.40;23.00;;;15.80;1.00;;;;;;5010102;28;20211;-51
2021/10/09 09:55:32;;;;;;;29.80;22.23;;;15.70;1.00;;;;;;5009963;28;20340;-50
2021/10/09 09:58:14;;;;;;;31.73;23.37;;;15.60;1.00;;;;;;5014611;28;20287;-50
2021/10/09 10:00:41;;;;;;;32.50;23.93;;;16.00;1.00;;;;;;5017770;28;20242;-50
2021/10/09 10:03:10;;;;;;;34.33;23.87;;;16.00;1.00;;;;;;5009581;28;20259;-50
2021/10/09 10:05:39;;;;;;;31.13;22.37;;;16.10;99.90;;;;;;5005816;28;20349;-50
2021/10/09 10:08:10;;;;;;;33.00;21.57;;;15.90;99.90;;;;;;5006163;28;20207;-49
2021/10/09 10:10:36;;;;;;;32.83;21.37;;;16.10;1.00;;;;;;5004581;28;20367;-50
2021/10/09 10:13:03;;;;;;;32.30;22.53;;;16.20;1.00;;;;;;5003117;28;20296;-50
2021/10/09 10:15:31;;;;;;;35.10;23.93;;;16.30;36.60;;;;;;5008730;28;20324;-50
2021/10/09 10:17:58;;;;;;;30.97;22.10;;;16.20;99.90;;;;;;5014985;28;20230;-50
2021/10/09 10:20:50;;;;;;;30.20;21.80;;;15.80;99.90;;;;;;5012543;28;20240;-50
2021/10/09 10:23:36;;;;;;;28.03;21.23;;;16.10;99.90;;;;;;5005493;28;20360;-50
2021/10/09 10:26:18;;;;;;;30.23;20.83;;;16.20;1.00;;;;;;5002921;28;20214;-50
2021/10/09 10:28:58;;;;;;;32.43;22.87;;;16.20;64.40;;;;;;5022300;28;20254;-50
2021/10/09 10:31:27;;;;;;;33.17;23.10;;;16.20;1.00;;;;;;5006473;28;20265;-50
2021/10/09 10:34:23;;;;;;;31.10;22.53;;;16.10;1.00;;;;;;5019907;28;20253;-50
2021/10/09 10:36:50;;;;;;;29.83;21.73;;;15.90;99.90;;;;;;5019352;28;20535;-50
2021/10/09 10:39:25;;;;;;;29.20;21.53;;;15.90;1.00;;;;;;5017807;28;20277;-50
2021/10/09 10:42:01;;;;;;;30.67;21.70;;;15.90;1.00;;;;;;5022787;28;20232;-50
2021/10/09 10:44:45;;;;;;;30.63;22.50;;;15.90;99.90;;;;;;5013985;28;20302;-50
2021/10/09 10:47:53;;;;;;;28.50;20.93;;;16.10;99.90;;;;;;5007515;28;20350;-50
2021/10/09 10:51:17;;;;;;;32.10;21.67;;;16.00;1.00;;;;;;5014079;28;20644;-50
2021/10/09 10:56:58;;;;;;;32.50;20.97;;;16.10;99.90;;;;;;5018596;28;20666;-50
2021/10/09 10:59:42;;;;;;;33.20;22.37;;;16.20;1.00;;;;;;5009634;28;20273;-50
2021/10/09 11:02:20;;;;;;;28.37;21.67;;;16.10;1.00;;;;;;5023824;28;20205;-50
2021/10/09 11:04:59;;;;;;;39.37;22.40;;;16.00;99.90;;;;;;5007635;28;20670;-50
2021/10/09 11:07:26;;;;;;;31.83;21.77;;;16.10;99.90;;;;;;5018668;28;20878;-51
2021/10/09 11:09:58;;;;;;;27.70;20.70;;;16.10;99.90;;;;;;5010342;28;20678;-51
2021/10/09 11:12:31;;;;;;;29.90;21.73;;;16.20;1.00;;;;;;5016014;28;20199;-51
2021/10/09 11:15:10;;;;;;;30.00;21.63;;;16.40;1.00;;;;;;5014757;28;20223;-51
2021/10/09 11:17:42;;;;;;;28.87;20.20;;;16.50;99.90;;;;;;5006354;28;20224;-51
2021/10/09 11:20:11;;;;;;;29.23;20.47;;;16.80;1.00;;;;;;5004698;28;20310;-51
2021/10/09 11:22:43;;;;;;;29.77;19.83;;;16.90;1.00;;;;;;5004731;28;20235;-51
2021/10/09 11:25:23;;;;;;;25.10;18.73;;;17.00;7.60;;;;;;5008906;28;20268;-51
2021/10/09 11:27:51;;;;;;;25.83;19.83;;;17.10;1.00;;;;;;5020572;28;20680;-50
2021/10/09 11:30:18;;;;;;;28.73;20.13;;;17.20;1.00;;;;;;5010113;28;20393;-50
2021/10/09 11:32:45;;;;;;;29.70;20.77;;;17.30;1.00;;;;;;5018965;28;20309;-51
2021/10/09 11:35:15;;;;;;;26.77;20.20;;;17.60;1.00;;;;;;5013056;28;20302;-50
2021/10/09 11:37:51;;;;;;;26.67;20.67;;;17.40;99.90;;;;;;5009687;28;20257;-50
2021/10/09 11:40:29;;;;;;;29.90;20.40;;;17.70;1.00;;;;;;5010306;28;20211;-50
2021/10/09 11:43:00;;;;;;;29.80;20.17;;;18.00;1.00;;;;;;5022561;28;20240;-50
2021/10/09 11:45:42;;;;;;;27.07;19.20;;;18.10;1.00;;;;;;5019390;28;20239;-50
2021/10/09 11:54:21;;;;;;;25.33;19.27;;;18.70;1.00;;;;;;5015279;28;20231;-50
2021/10/09 11:56:43;;;;;;;26.47;19.33;;;18.90;1.00;;;;;;5018988;28;20238;-50
2021/10/09 11:59:11;;;;;;;25.80;19.03;;;19.00;99.90;;;;;;5009460;28;20368;-50
2021/10/09 12:01:45;;;;;;;27.23;18.93;;;19.10;99.90;;;;;;5016517;28;20286;-50
2021/10/09 12:04:23;;;;;;;26.67;19.60;;;19.50;99.90;;;;;;5005109;28;20204;-50
2021/10/09 12:07:08;;;;;;;26.00;19.80;;;19.60;1.00;;;;;;5009927;28;20243;-50
2021/10/09 12:09:45;;;;;;;25.20;19.50;;;19.80;99.90;;;;;;5016848;28;20285;-50
2021/10/09 12:12:20;;;;;;;28.53;19.33;;;20.30;96.40;;;;;;5013199;28;20209;-50
2021/10/09 12:14:48;;;;;;;25.77;19.53;;;20.50;1.00;;;;;;5008667;28;20604;-50
2021/10/09 12:17:17;;;;;;;25.57;19.53;;;20.50;1.00;;;;;;5007705;28;20308;-50
2021/10/09 12:19:46;;;;;;;28.80;20.87;;;20.40;1.00;;;;;;5009111;28;20655;-50
2021/10/09 12:22:14;;;;;;;27.53;21.30;;;20.60;1.00;;;;;;5014871;28;20702;-50
2021/10/09 12:24:45;;;;;;;27.53;19.87;;;20.70;1.00;;;;;;5009326;28;20318;-50
2021/10/09 12:27:18;;;;;;;27.60;18.97;;;20.80;1.00;;;;;;5010757;28;20222;-50
2021/10/09 12:30:10;;;;;;;26.50;20.50;;;20.80;1.00;;;;;;5012549;28;20203;-50
2021/10/09 12:32:46;;;;;;;25.77;19.73;;;20.70;1.00;;;;;;5008328;28;20613;-50
2021/10/09 12:35:18;;;;;;;27.73;20.33;;;20.60;1.00;;;;;;5009171;28;20219;-50
2021/10/09 12:37:57;;;;;;;24.57;19.57;;;20.60;1.00;;;;;;5010927;28;20341;-50
2021/10/09 12:40:36;;;;;;;24.40;18.33;;;21.10;1.00;;;;;;5009041;28;20218;-50
2021/10/09 12:43:03;;;;;;;26.00;19.07;;;21.20;1.00;;;;;;5010405;28;20614;-50
2021/10/09 12:45:30;;;;;;;24.17;19.97;;;21.60;1.00;;;;;;5013694;28;20337;-50
2021/10/09 12:48:00;;;;;;;27.60;20.43;;;20.80;1.00;;;;;;5012828;28;20298;-50
2021/10/09 12:50:39;;;;;;;28.17;19.63;;;21.10;1.00;;;;;;5007421;28;20217;-50
2021/10/09 12:53:07;;;;;;;28.07;20.30;;;21.20;1.00;;;;;;5007356;28;20268;-50
2021/10/09 12:55:35;;;;;;;26.30;19.50;;;21.10;1.00;;;;;;5008763;28;20211;-50
2021/10/09 12:58:05;;;;;;;27.53;19.67;;;21.40;1.00;;;;;;5009868;28;20284;-50
2021/10/09 13:00:33;;;;;;;23.63;18.90;;;21.40;1.00;;;;;;5013786;28;20603;-50
2021/10/09 13:03:00;;;;;;;26.80;19.47;;;21.30;1.00;;;;;;5016550;28;20196;-50
2021/10/09 13:05:29;;;;;;;28.87;19.80;;;21.20;1.00;;;;;;5008887;28;20233;-50
2021/10/09 13:07:58;;;;;;;24.73;19.37;;;21.20;1.00;;;;;;5008019;28;20205;-51
2021/10/09 13:10:26;;;;;;;22.67;18.60;;;21.10;1.00;;;;;;5010439;28;20213;-50
2021/10/09 13:12:53;;;;;;;24.27;19.07;;;20.90;1.00;;;;;;5012544;28;20668;-51
2021/10/09 13:15:20;;;;;;;25.40;19.07;;;21.20;1.00;;;;;;5011705;28;20686;-55
2021/10/09 13:17:49;;;;;;;24.27;19.33;;;21.20;1.00;;;;;;5011164;28;20229;-50
2021/10/09 13:20:17;;;;;;;25.93;18.53;;;21.00;1.00;;;;;;5012029;28;20740;-51
2021/10/09 13:22:45;;;;;;;23.27;18.47;;;21.00;1.00;;;;;;5006602;28;20284;-50
2021/10/09 13:25:28;;;;;;;23.93;18.53;;;21.20;1.00;;;;;;5010654;28;20339;-50
2021/10/09 13:27:55;;;;;;;27.37;19.33;;;21.00;1.00;;;;;;5014014;28;20203;-50
2021/10/09 13:30:22;;;;;;;26.87;18.33;;;21.10;1.00;;;;;;5009816;28;20637;-50
2021/10/09 13:32:49;;;;;;;27.20;18.97;;;20.90;1.00;;;;;;5013484;28;20282;-51
2021/10/09 13:35:16;;;;;;;26.77;19.17;;;20.80;1.00;;;;;;5015470;28;20252;-50
2021/10/09 13:37:51;;;;;;;26.00;19.07;;;20.90;1.00;;;;;;5013301;28;20295;-50
2021/10/09 13:40:19;;;;;;;23.57;19.17;;;20.80;1.00;;;;;;5010717;28;20214;-50
2021/10/09 13:42:46;;;;;;;22.83;18.43;;;20.80;1.00;;;;;;5017508;28;20838;-50
2021/10/09 13:45:13;;;;;;;26.37;17.87;;;20.90;1.00;;;;;;5012481;28;21000;-50
2021/10/09 13:47:41;;;;;;;24.17;17.77;;;20.70;1.00;;;;;;5016117;28;20232;-50
2021/10/09 13:50:09;;;;;;;27.07;19.33;;;20.80;1.00;;;;;;5014161;28;20203;-51
2021/10/09 13:52:36;;;;;;;27.97;19.00;;;20.90;1.00;;;;;;5004484;28;20618;-50
2021/10/09 13:55:03;;;;;;;27.13;19.30;;;21.00;1.00;;;;;;4999282;28;20312;-50
2021/10/09 13:57:29;;;;;;;24.30;18.07;;;21.10;1.00;;;;;;5001822;28;20529;-51
2021/10/09 13:59:58;;;;;;;23.03;18.13;;;20.90;1.00;;;;;;5006655;28;20208;-50
2021/10/09 14:02:25;;;;;;;23.57;18.63;;;20.90;1.00;;;;;;4992809;28;20234;-50
2021/10/09 14:04:52;;;;;;;27.77;19.03;;;20.90;1.00;;;;;;5008827;28;20816;-50
2021/10/09 14:07:19;;;;;;;24.13;17.33;;;20.90;1.00;;;;;;5004204;28;20227;-51
2021/10/09 14:09:47;;;;;;;25.67;17.50;;;20.90;1.00;;;;;;5012240;28;20212;-50
2021/10/09 14:12:14;;;;;;;23.73;16.67;;;20.80;1.00;;;;;;5012091;28;20275;-50
2021/10/09 14:14:41;;;;;;;23.37;17.43;;;20.90;1.00;;;;;;5004267;28;20227;-51
2021/10/09 14:17:07;;;;;;;25.43;17.10;;;21.00;1.00;;;;;;5014787;28;20196;-50
2021/10/09 14:19:54;;;;;;;20.07;17.17;;;21.00;1.00;;;;;;5019760;28;20201;-51
2021/10/09 14:22:22;;;;;;;24.67;17.50;;;21.10;1.00;;;;;;5018844;28;20216;-51
2021/10/09 14:24:49;;;;;;;21.23;17.17;;;20.60;1.00;;;;;;5022096;28;20747;-51
2021/10/09 14:27:16;;;;;;;23.27;16.80;;;20.40;1.00;;;;;;5023378;28;20197;-50
2021/10/09 14:29:43;;;;;;;22.43;16.93;;;20.60;1.00;;;;;;5021292;28;20634;-51
2021/10/09 14:32:10;;;;;;;26.20;16.90;;;20.80;1.00;;;;;;5018641;28;20228;-50
2021/10/09 14:34:37;;;;;;;23.67;16.30;;;20.60;1.00;;;;;;5018000;28;20662;-50
2021/10/09 14:37:04;;;;;;;20.00;16.57;;;20.60;1.00;;;;;;5016404;28;20254;-50
2021/10/09 14:39:31;;;;;;;22.97;16.70;;;20.80;1.00;;;;;;5011135;28;20206;-50
2021/10/09 14:41:59;;;;;;;26.27;16.73;;;20.80;1.00;;;;;;5015460;28;20243;-50
2021/10/09 14:44:26;;;;;;;21.00;16.53;;;20.70;1.00;;;;;;5010731;28;20199;-50
2021/10/09 14:49:27;;;;;;;21.70;16.03;;;20.50;1.00;;;;;;5012340;28;20208;-50
2021/10/09 14:52:00;;;;;;;22.20;16.70;;;20.60;1.00;;;;;;5008573;28;20255;-50
2021/10/09 14:55:01;;;;;;;25.23;16.43;;;20.80;1.00;;;;;;5015185;28;20383;-50
2021/10/09 15:17:32;;;;;;;20.60;15.93;;;20.10;1.00;;;;;;4987520;28;20308;-50